Time;durP1;ratioP1;P1;durP2;ratioP2;P2;SDS_P1;SDS_P2;PMS_P1;PMS_P2;Temp;Humidity;BMP_temperature;BMP_pressure;BME280_temperature;BME280_humidity;BME280_pressure;Samples;Min_cycle;Max_cycle;Signal;HPM_P1;HPM_P2
2023/08/14 00:01:29;;;;;;;4.60;4.03;;;19.40;99.90;;;;;;5088215;28;20844;-61
2023/08/14 00:03:56;;;;;;;4.70;4.00;;;19.40;99.90;;;;;;5088262;28;20530;-61
2023/08/14 00:06:23;;;;;;;3.73;3.43;;;19.40;99.90;;;;;;5087081;28;20443;-60
2023/08/14 00:08:50;;;;;;;4.17;3.87;;;19.40;99.90;;;;;;5088159;28;20514;-61
2023/08/14 00:11:18;;;;;;;5.20;3.70;;;19.40;99.90;;;;;;5088077;28;20981;-61
2023/08/14 00:13:53;;;;;;;4.63;4.20;;;19.40;99.90;;;;;;5088210;28;21047;-61
2023/08/14 00:16:20;;;;;;;6.03;4.40;;;19.40;99.90;;;;;;5084752;28;20513;-61
2023/08/14 00:18:47;;;;;;;5.03;3.77;;;19.30;99.90;;;;;;5088185;28;20526;-61
2023/08/14 00:21:14;;;;;;;4.67;4.20;;;19.30;99.90;;;;;;5087687;28;20554;-61
2023/08/14 00:23:40;;;;;;;4.33;3.40;;;19.30;99.90;;;;;;5088459;28;20536;-59
2023/08/14 00:26:07;;;;;;;4.93;4.10;;;19.30;99.90;;;;;;5087932;28;20569;-61
2023/08/14 00:28:35;;;;;;;9.90;4.10;;;19.30;99.90;;;;;;5088561;28;20453;-61
2023/08/14 00:31:02;;;;;;;4.60;4.20;;;19.30;99.90;;;;;;5086586;28;20524;-61
2023/08/14 00:33:29;;;;;;;4.87;4.50;;;19.30;99.90;;;;;;5088405;28;20446;-61
2023/08/14 00:35:56;;;;;;;3.90;3.60;;;19.30;99.90;;;;;;5087658;28;20529;-60
2023/08/14 00:38:23;;;;;;;4.80;4.33;;;19.30;99.90;;;;;;5088109;28;20449;-61
2023/08/14 00:40:52;;;;;;;6.70;4.10;;;19.30;99.90;;;;;;5076608;28;20478;-61
2023/08/14 00:43:20;;;;;;;3.53;3.30;;;19.30;99.90;;;;;;5068068;28;20451;-61
2023/08/14 00:45:49;;;;;;;4.20;3.80;;;19.30;99.90;;;;;;5067696;28;20534;-61
2023/08/14 00:48:16;;;;;;;5.10;3.30;;;19.30;99.90;;;;;;5067473;28;20450;-60
2023/08/14 00:50:44;;;;;;;4.10;3.80;;;19.30;99.90;;;;;;5067531;28;20447;-61
2023/08/14 00:53:11;;;;;;;4.93;4.10;;;19.30;99.90;;;;;;5067841;28;21014;-62
2023/08/14 00:55:38;;;;;;;10.43;5.17;;;19.30;99.90;;;;;;5068269;28;20573;-61
2023/08/14 00:58:06;;;;;;;8.80;3.67;;;19.30;99.90;;;;;;5067297;28;20518;-61
2023/08/14 01:00:34;;;;;;;5.17;4.67;;;19.30;99.90;;;;;;5067740;28;20944;-61
2023/08/14 01:03:03;;;;;;;4.43;4.00;;;19.20;99.90;;;;;;5068781;28;20476;-62
2023/08/14 01:05:31;;;;;;;4.73;4.03;;;19.20;99.90;;;;;;5071762;28;21027;-61
2023/08/14 01:07:58;;;;;;;7.00;4.30;;;19.20;99.90;;;;;;5070953;28;20443;-61
2023/08/14 01:10:35;;;;;;;5.17;4.27;;;19.20;99.90;;;;;;5071705;28;20451;-61
2023/08/14 01:13:11;;;;;;;5.10;4.60;;;19.10;99.90;;;;;;5071725;28;20523;-61
2023/08/14 01:15:43;;;;;;;4.90;4.40;;;19.10;99.90;;;;;;5071692;28;20485;-61
2023/08/14 01:18:16;;;;;;;4.17;3.87;;;19.10;99.90;;;;;;5071146;28;20483;-61
2023/08/14 01:20:51;;;;;;;4.80;4.30;;;19.10;99.90;;;;;;5071802;28;20558;-61
2023/08/14 01:23:26;;;;;;;4.03;3.67;;;19.10;99.90;;;;;;5071860;28;20452;-61
2023/08/14 01:25:55;;;;;;;5.73;4.23;;;19.10;99.90;;;;;;5070930;28;20538;-61
2023/08/14 01:28:22;;;;;;;4.90;4.40;;;19.10;99.90;;;;;;5071356;28;20454;-61
2023/08/14 01:30:49;;;;;;;4.43;4.07;;;19.10;99.90;;;;;;5069669;28;20544;-61
2023/08/14 01:33:16;;;;;;;6.67;4.70;;;19.00;99.90;;;;;;5071441;28;20475;-61
2023/08/14 01:35:46;;;;;;;5.17;4.40;;;19.10;99.90;;;;;;5071299;28;20454;-62
2023/08/14 01:38:19;;;;;;;4.80;4.40;;;19.10;99.90;;;;;;5070466;28;20881;-60
2023/08/14 01:40:53;;;;;;;5.90;5.40;;;19.10;99.90;;;;;;5071252;28;20481;-61
2023/08/14 01:43:24;;;;;;;5.00;4.30;;;19.10;99.90;;;;;;5071081;28;21027;-61
2023/08/14 01:45:53;;;;;;;5.77;4.70;;;19.10;99.90;;;;;;5070734;28;20454;-61
2023/08/14 01:48:22;;;;;;;5.30;3.97;;;19.10;99.90;;;;;;5070811;28;20835;-61
2023/08/14 01:50:51;;;;;;;7.90;4.50;;;19.10;99.90;;;;;;5071105;28;20542;-61
2023/08/14 01:53:17;;;;;;;6.67;3.63;;;19.00;99.90;;;;;;5071065;28;20447;-60
2023/08/14 01:55:44;;;;;;;4.20;3.80;;;19.00;99.90;;;;;;5071077;28;20477;-61
2023/08/14 01:58:11;;;;;;;4.70;4.30;;;19.00;99.90;;;;;;5070327;28;20501;-61
2023/08/14 02:00:40;;;;;;;4.50;4.17;;;19.00;99.90;;;;;;5070759;28;20950;-61
2023/08/14 02:03:07;;;;;;;6.80;4.23;;;19.00;99.90;;;;;;5070584;28;20449;-61
2023/08/14 02:05:34;;;;;;;4.17;3.87;;;18.90;99.90;;;;;;5071094;28;20482;-61
2023/08/14 02:08:01;;;;;;;5.27;3.93;;;18.90;99.90;;;;;;5069848;28;20966;-61
2023/08/14 02:10:28;;;;;;;4.23;3.83;;;18.90;99.90;;;;;;5070759;28;20533;-61
2023/08/14 02:12:54;;;;;;;4.37;4.07;;;18.90;99.90;;;;;;5070599;28;20565;-61
2023/08/14 02:15:22;;;;;;;4.87;4.40;;;18.80;99.90;;;;;;5070463;28;20460;-61
2023/08/14 02:17:51;;;;;;;5.23;3.77;;;18.80;99.90;;;;;;5069591;28;20494;-61
2023/08/14 02:20:18;;;;;;;4.63;4.23;;;18.70;99.90;;;;;;5070724;28;20971;-60
2023/08/14 02:22:46;;;;;;;4.17;3.73;;;18.70;99.90;;;;;;5070448;28;20562;-61
2023/08/14 02:25:13;;;;;;;4.97;4.47;;;18.70;99.90;;;;;;5070302;28;20448;-61
2023/08/14 02:27:39;;;;;;;5.10;4.10;;;18.70;99.90;;;;;;5069593;28;20557;-61
2023/08/14 02:30:08;;;;;;;3.90;3.60;;;18.80;99.90;;;;;;5068570;28;20455;-61
2023/08/14 02:32:34;;;;;;;7.43;5.30;;;18.70;99.90;;;;;;5070038;28;20557;-61
2023/08/14 02:35:03;;;;;;;4.87;4.47;;;18.70;99.90;;;;;;5070249;28;20458;-61
2023/08/14 02:37:30;;;;;;;6.40;4.87;;;18.70;99.90;;;;;;5069307;28;20579;-61
2023/08/14 02:39:57;;;;;;;3.73;3.43;;;18.70;99.90;;;;;;5070417;28;20629;-61
2023/08/14 02:42:23;;;;;;;4.40;4.03;;;18.70;99.90;;;;;;5070187;28;20580;-61
2023/08/14 02:44:50;;;;;;;3.90;3.50;;;18.70;99.90;;;;;;5070526;28;20454;-61
2023/08/14 02:47:18;;;;;;;4.03;3.43;;;18.60;99.90;;;;;;5069417;28;20530;-61
2023/08/14 02:49:44;;;;;;;4.70;4.20;;;18.60;99.90;;;;;;5069875;28;20550;-61
2023/08/14 02:52:13;;;;;;;4.37;4.07;;;18.60;99.90;;;;;;5069843;28;21222;-61
2023/08/14 02:54:39;;;;;;;7.17;4.87;;;18.60;99.90;;;;;;5069818;28;21050;-61
2023/08/14 02:57:06;;;;;;;4.13;3.83;;;18.60;99.90;;;;;;5068812;28;20486;-61
2023/08/14 02:59:33;;;;;;;7.90;4.20;;;18.60;99.90;;;;;;5069840;28;20454;-60
2023/08/14 03:02:00;;;;;;;5.13;4.63;;;18.60;99.90;;;;;;5069682;28;20474;-61
2023/08/14 03:04:29;;;;;;;4.90;4.40;;;18.60;99.90;;;;;;5069759;28;20447;-61
2023/08/14 03:06:56;;;;;;;4.40;4.00;;;18.60;99.90;;;;;;5068881;28;20507;-61
2023/08/14 03:09:25;;;;;;;5.30;4.87;;;18.60;99.90;;;;;;5069487;28;20569;-60
2023/08/14 03:11:51;;;;;;;4.90;4.47;;;18.60;99.90;;;;;;5069697;28;20559;-61
2023/08/14 03:14:18;;;;;;;5.20;4.03;;;18.60;99.90;;;;;;5069819;28;20833;-61
2023/08/14 03:16:45;;;;;;;8.87;4.87;;;18.50;99.90;;;;;;5068676;28;20566;-61
2023/08/14 03:19:12;;;;;;;5.13;4.10;;;18.50;99.90;;;;;;5069280;28;20575;-61
2023/08/14 03:21:39;;;;;;;7.30;4.20;;;18.50;99.90;;;;;;5069282;28;20473;-61
2023/08/14 03:24:06;;;;;;;9.37;4.47;;;18.50;99.90;;;;;;5069007;28;20458;-60
2023/08/14 03:26:34;;;;;;;3.90;3.60;;;18.50;99.90;;;;;;5081861;28;20463;-61
2023/08/14 03:29:01;;;;;;;8.70;4.07;;;18.50;99.90;;;;;;5085411;28;21000;-61
2023/08/14 03:31:31;;;;;;;4.90;4.40;;;18.50;99.90;;;;;;5087252;28;20473;-60
2023/08/14 03:33:58;;;;;;;5.70;4.47;;;18.50;99.90;;;;;;5082562;28;20477;-61
2023/08/14 03:36:25;;;;;;;4.73;3.73;;;18.50;99.90;;;;;;5068148;28;20447;-61
2023/08/14 03:38:52;;;;;;;4.20;3.90;;;18.50;99.90;;;;;;5069236;28;20594;-61
2023/08/14 03:41:19;;;;;;;5.03;4.60;;;18.50;99.90;;;;;;5069046;28;21636;-61
2023/08/14 03:43:48;;;;;;;4.40;4.10;;;18.50;99.90;;;;;;5069054;28;20908;-61
2023/08/14 03:46:15;;;;;;;4.83;4.20;;;18.50;99.90;;;;;;5068229;28;20447;-61
2023/08/14 03:48:41;;;;;;;5.03;4.43;;;18.50;99.90;;;;;;5068734;28;21197;-61
2023/08/14 03:51:09;;;;;;;6.50;4.80;;;18.50;99.90;;;;;;5087428;28;20499;-61
2023/08/14 03:53:36;;;;;;;4.70;4.20;;;18.50;99.90;;;;;;5070808;28;21153;-61
2023/08/14 03:56:03;;;;;;;7.73;3.80;;;18.50;99.90;;;;;;5067699;28;20458;-61
2023/08/14 03:58:30;;;;;;;4.47;4.07;;;18.60;99.90;;;;;;5068260;28;20578;-61
2023/08/14 04:00:58;;;;;;;4.33;3.93;;;18.60;99.90;;;;;;5068446;28;20512;-62
2023/08/14 04:03:25;;;;;;;4.83;4.13;;;18.60;99.90;;;;;;5068630;28;20534;-61
2023/08/14 04:05:56;;;;;;;4.10;3.60;;;18.60;99.90;;;;;;5068150;28;20454;-61
2023/08/14 04:08:22;;;;;;;4.40;4.00;;;18.60;99.90;;;;;;5068653;28;21031;-60
2023/08/14 04:10:55;;;;;;;4.57;4.27;;;18.60;99.90;;;;;;5068354;28;20458;-61
2023/08/14 04:13:22;;;;;;;4.87;4.30;;;18.60;99.90;;;;;;5068566;28;20452;-61
2023/08/14 04:15:49;;;;;;;5.30;4.60;;;18.60;99.90;;;;;;5068210;28;20535;-62
2023/08/14 04:18:17;;;;;;;3.93;3.53;;;18.60;99.90;;;;;;5068101;28;20579;-61
2023/08/14 04:20:44;;;;;;;6.03;4.20;;;18.60;99.90;;;;;;5068026;28;20457;-62
2023/08/14 04:23:10;;;;;;;4.57;4.27;;;18.60;99.90;;;;;;5068040;28;20912;-62
2023/08/14 04:25:37;;;;;;;5.33;4.90;;;18.60;99.90;;;;;;5067795;28;20451;-61
2023/08/14 04:28:05;;;;;;;3.97;3.67;;;18.60;99.90;;;;;;5067323;28;21010;-61
2023/08/14 04:30:32;;;;;;;7.93;4.57;;;18.60;99.90;;;;;;5066310;28;20447;-62
2023/08/14 04:32:58;;;;;;;4.07;3.70;;;18.60;99.90;;;;;;5068311;28;20467;-62
2023/08/14 04:35:27;;;;;;;4.60;4.27;;;18.60;99.90;;;;;;5068577;28;20811;-62
2023/08/14 04:37:53;;;;;;;5.30;4.80;;;18.70;99.90;;;;;;5067131;28;20479;-62
2023/08/14 04:40:20;;;;;;;4.80;4.40;;;18.70;99.90;;;;;;5067919;28;20451;-61
2023/08/14 04:42:47;;;;;;;5.37;4.60;;;18.70;99.90;;;;;;5068032;28;20915;-62
2023/08/14 04:45:14;;;;;;;6.40;4.70;;;18.70;99.90;;;;;;5067823;28;20970;-61
2023/08/14 04:47:41;;;;;;;4.93;4.40;;;18.70;99.90;;;;;;5084192;28;20456;-62
2023/08/14 04:50:08;;;;;;;6.53;3.67;;;18.70;99.90;;;;;;5067981;28;21128;-61
2023/08/14 04:52:36;;;;;;;5.90;4.23;;;18.80;99.90;;;;;;5067818;28;20554;-61
2023/08/14 04:55:04;;;;;;;5.60;4.97;;;18.80;99.90;;;;;;5067909;28;20453;-61
2023/08/14 04:57:31;;;;;;;5.00;4.50;;;18.80;99.90;;;;;;5067314;28;20454;-61
2023/08/14 04:59:58;;;;;;;4.20;3.90;;;18.80;99.90;;;;;;5067927;28;20447;-62
2023/08/14 05:02:24;;;;;;;4.83;4.10;;;18.80;99.90;;;;;;5068107;28;20566;-61
2023/08/14 05:04:51;;;;;;;5.30;3.50;;;18.80;99.90;;;;;;5068011;28;20450;-62
2023/08/14 05:07:18;;;;;;;4.60;4.17;;;18.80;99.90;;;;;;5066947;28;20450;-61
2023/08/14 05:09:48;;;;;;;8.17;5.23;;;18.80;99.90;;;;;;5068036;28;20533;-62
2023/08/14 05:12:15;;;;;;;4.33;4.03;;;18.80;99.90;;;;;;5067882;28;20466;-61
2023/08/14 05:14:42;;;;;;;4.90;4.50;;;18.80;99.90;;;;;;5067538;28;20451;-62
2023/08/14 05:17:09;;;;;;;6.17;5.10;;;18.80;99.90;;;;;;5066792;28;20447;-62
2023/08/14 05:19:35;;;;;;;4.80;4.40;;;18.80;99.90;;;;;;5067466;28;20490;-61
2023/08/14 05:22:02;;;;;;;5.83;5.03;;;18.80;99.90;;;;;;5067228;28;20585;-61
2023/08/14 05:24:29;;;;;;;7.73;5.67;;;18.80;99.90;;;;;;5067547;28;20450;-62
2023/08/14 05:26:57;;;;;;;6.77;4.53;;;18.80;99.90;;;;;;5066724;28;20458;-61
2023/08/14 05:29:24;;;;;;;5.77;4.60;;;18.90;99.90;;;;;;5067858;28;20450;-62
2023/08/14 05:31:51;;;;;;;6.37;4.60;;;18.80;99.90;;;;;;5066467;28;20486;-62
2023/08/14 05:34:18;;;;;;;4.43;4.03;;;18.80;99.90;;;;;;5067822;28;20452;-61
2023/08/14 05:36:44;;;;;;;5.10;4.50;;;18.90;99.90;;;;;;5066948;28;20451;-61
2023/08/14 05:39:11;;;;;;;5.30;4.80;;;18.90;99.90;;;;;;5067308;28;20494;-62
2023/08/14 05:41:38;;;;;;;4.33;3.93;;;18.90;99.90;;;;;;5067427;28;20474;-61
2023/08/14 05:44:07;;;;;;;6.97;4.37;;;19.00;99.90;;;;;;5068061;28;20541;-61
2023/08/14 05:46:33;;;;;;;4.10;3.80;;;19.00;99.90;;;;;;5085738;28;20444;-61
2023/08/14 05:49:00;;;;;;;5.33;4.00;;;19.00;99.90;;;;;;5088693;28;20529;-61
2023/08/14 05:51:27;;;;;;;4.60;3.90;;;19.10;99.90;;;;;;5091188;28;20472;-61
2023/08/14 05:53:54;;;;;;;6.37;5.90;;;19.20;99.90;;;;;;5091053;28;20450;-62
2023/08/14 05:56:21;;;;;;;6.57;5.63;;;19.20;99.90;;;;;;5090657;28;20450;-61
2023/08/14 05:58:47;;;;;;;5.07;4.57;;;19.30;99.90;;;;;;5090702;28;20584;-62
2023/08/14 06:01:16;;;;;;;5.20;4.80;;;19.40;99.90;;;;;;5090996;28;20493;-61
2023/08/14 06:03:43;;;;;;;5.23;4.70;;;19.50;99.90;;;;;;5090912;28;20975;-61
2023/08/14 06:06:10;;;;;;;4.30;4.10;;;19.60;99.90;;;;;;5090177;28;20446;-61
2023/08/14 06:08:37;;;;;;;5.00;4.60;;;19.70;99.90;;;;;;5089390;28;20486;-59
2023/08/14 06:11:04;;;;;;;7.77;4.47;;;19.90;99.90;;;;;;5090606;28;20882;-61
2023/08/14 06:13:31;;;;;;;4.70;4.37;;;20.00;99.90;;;;;;5090992;28;20532;-61
2023/08/14 06:15:58;;;;;;;4.90;3.97;;;20.10;99.90;;;;;;5090490;28;20491;-61
2023/08/14 06:18:26;;;;;;;5.50;5.10;;;20.30;99.90;;;;;;5091265;28;20601;-62
2023/08/14 06:20:53;;;;;;;4.40;3.60;;;20.40;99.90;;;;;;5090007;28;20871;-62
2023/08/14 06:23:20;;;;;;;5.40;5.00;;;20.40;99.90;;;;;;5090427;28;20531;-61
2023/08/14 06:25:47;;;;;;;5.37;4.40;;;20.50;99.90;;;;;;5090273;28;20954;-61
2023/08/14 06:28:13;;;;;;;6.90;6.20;;;20.60;99.90;;;;;;5089878;28;20452;-61
2023/08/14 06:30:40;;;;;;;5.67;5.17;;;20.70;99.90;;;;;;5090686;28;20488;-61
2023/08/14 06:33:07;;;;;;;6.37;5.00;;;20.80;99.90;;;;;;5090783;28;20921;-60
2023/08/14 06:35:36;;;;;;;4.83;4.50;;;20.90;99.90;;;;;;5089916;28;20440;-61
2023/08/14 06:38:02;;;;;;;5.57;5.17;;;21.00;99.90;;;;;;5089418;28;20482;-61
2023/08/14 06:40:29;;;;;;;6.07;5.37;;;21.00;99.90;;;;;;5090461;28;20897;-61
2023/08/14 06:42:56;;;;;;;6.30;5.70;;;20.90;99.90;;;;;;5090523;28;21154;-62
2023/08/14 06:45:23;;;;;;;8.00;6.10;;;20.90;99.90;;;;;;5090995;28;20452;-62
2023/08/14 06:47:50;;;;;;;6.57;6.00;;;21.00;99.90;;;;;;5089938;28;20523;-61
2023/08/14 06:50:17;;;;;;;7.00;5.83;;;21.10;99.90;;;;;;5090187;28;20449;-59
2023/08/14 06:52:47;;;;;;;6.83;5.90;;;21.30;99.90;;;;;;5090101;28;20479;-61
2023/08/14 06:55:14;;;;;;;6.27;5.67;;;21.40;99.90;;;;;;5090217;28;20536;-61
2023/08/14 06:57:40;;;;;;;6.83;6.20;;;21.60;99.90;;;;;;5089757;28;20987;-61
2023/08/14 07:00:13;;;;;;;7.50;6.03;;;21.70;99.90;;;;;;5089415;28;20484;-62
2023/08/14 07:02:40;;;;;;;6.67;6.07;;;21.90;99.90;;;;;;5089999;28;20477;-62
2023/08/14 07:05:10;;;;;;;5.83;4.90;;;22.10;99.90;;;;;;5090314;28;21038;-61
2023/08/14 07:07:36;;;;;;;8.10;5.13;;;22.20;99.90;;;;;;5089455;28;20456;-62
2023/08/14 07:10:06;;;;;;;6.80;5.73;;;22.40;99.90;;;;;;5089745;28;20456;-62
2023/08/14 07:12:33;;;;;;;5.90;5.43;;;22.60;99.90;;;;;;5089833;28;20552;-62
2023/08/14 07:15:00;;;;;;;6.37;5.37;;;22.70;99.90;;;;;;5089741;28;20507;-62
2023/08/14 07:17:27;;;;;;;6.50;6.00;;;22.90;99.90;;;;;;5088944;28;20453;-62
2023/08/14 07:19:54;;;;;;;7.33;6.67;;;23.10;99.90;;;;;;5089514;28;20493;-62
2023/08/14 07:22:21;;;;;;;5.20;4.77;;;23.20;99.90;;;;;;5089429;28;20913;-62
2023/08/14 07:24:48;;;;;;;5.10;4.80;;;23.40;99.90;;;;;;5090007;28;20449;-61
2023/08/14 07:27:16;;;;;;;5.50;5.10;;;23.50;99.90;;;;;;5088734;28;20973;-62
2023/08/14 07:29:44;;;;;;;9.70;6.23;;;23.60;99.90;;;;;;5089648;28;20450;-62
2023/08/14 07:32:10;;;;;;;8.17;7.20;;;23.80;99.90;;;;;;5088392;28;20478;-62
2023/08/14 07:34:37;;;;;;;6.93;6.43;;;23.90;99.90;;;;;;5089398;28;20450;-62
2023/08/14 07:37:04;;;;;;;6.27;5.80;;;24.10;99.90;;;;;;5088543;28;20453;-62
2023/08/14 07:39:31;;;;;;;6.73;6.03;;;24.20;99.90;;;;;;5089194;28;20493;-62
2023/08/14 07:41:58;;;;;;;7.30;6.80;;;24.30;99.90;;;;;;5089135;28;20483;-62
2023/08/14 07:44:26;;;;;;;7.33;6.17;;;24.30;99.90;;;;;;5088096;28;20839;-62
2023/08/14 07:46:53;;;;;;;5.70;5.30;;;24.40;99.90;;;;;;5087811;28;20453;-62
2023/08/14 07:49:20;;;;;;;7.00;6.50;;;24.60;99.90;;;;;;5087430;28;20458;-62
2023/08/14 07:51:47;;;;;;;6.43;5.93;;;24.80;99.90;;;;;;5088273;28;20472;-62
2023/08/14 07:54:14;;;;;;;7.17;6.47;;;24.80;99.90;;;;;;5088219;28;20464;-62
2023/08/14 07:56:40;;;;;;;6.50;6.00;;;24.70;99.90;;;;;;5087874;28;20458;-62
2023/08/14 07:59:07;;;;;;;7.30;6.70;;;24.60;99.90;;;;;;5087163;28;20579;-62
2023/08/14 08:01:35;;;;;;;7.40;6.80;;;24.50;99.90;;;;;;5087007;28;20475;-62
2023/08/14 08:04:02;;;;;;;7.97;7.40;;;24.40;99.90;;;;;;5086154;28;20993;-61
2023/08/14 08:06:29;;;;;;;7.07;6.60;;;24.40;99.90;;;;;;5087097;28;20486;-62
2023/08/14 08:08:56;;;;;;;7.93;6.07;;;24.50;99.90;;;;;;5088014;28;20452;-62
2023/08/14 08:11:23;;;;;;;8.37;5.83;;;24.60;99.90;;;;;;5087448;28;20472;-62
2023/08/14 08:13:50;;;;;;;6.97;6.47;;;24.80;99.90;;;;;;5087262;28;20463;-62
2023/08/14 08:16:17;;;;;;;7.60;7.00;;;24.80;99.90;;;;;;5087197;28;20478;-61
2023/08/14 08:18:45;;;;;;;7.67;6.97;;;24.90;99.90;;;;;;5080991;28;20520;-61
2023/08/14 08:21:12;;;;;;;6.93;6.33;;;25.00;99.90;;;;;;5087679;28;20474;-61
2023/08/14 08:23:39;;;;;;;7.13;6.63;;;25.10;99.90;;;;;;5085941;28;20899;-63
2023/08/14 08:26:05;;;;;;;7.67;6.97;;;25.10;99.90;;;;;;5080981;28;20445;-63
2023/08/14 08:28:32;;;;;;;7.50;6.77;;;25.10;99.90;;;;;;5080836;28;20966;-63
2023/08/14 08:30:59;;;;;;;6.80;6.20;;;25.20;99.90;;;;;;5086705;28;20545;-62
2023/08/14 08:33:26;;;;;;;7.20;6.60;;;25.20;99.90;;;;;;5086922;28;21006;-63
2023/08/14 08:35:54;;;;;;;7.57;6.87;;;25.20;99.90;;;;;;5076920;28;20532;-63
2023/08/14 08:38:21;;;;;;;5.63;5.23;;;25.30;99.90;;;;;;5086713;28;20454;-63
2023/08/14 08:40:50;;;;;;;6.50;6.00;;;25.30;99.90;;;;;;5086007;28;20489;-63
2023/08/14 08:43:17;;;;;;;6.77;6.27;;;25.30;99.90;;;;;;5086819;28;20826;-63
2023/08/14 08:45:50;;;;;;;6.20;5.70;;;25.40;99.90;;;;;;5086444;28;20457;-63
2023/08/14 08:48:21;;;;;;;6.53;6.03;;;25.40;99.90;;;;;;5086716;28;20537;-63
2023/08/14 08:50:50;;;;;;;5.93;5.43;;;25.40;99.90;;;;;;5086249;28;20566;-63
2023/08/14 08:53:19;;;;;;;6.50;5.90;;;25.40;99.90;;;;;;5081618;28;20445;-63
2023/08/14 08:55:47;;;;;;;5.70;5.20;;;25.40;99.90;;;;;;5083364;28;20471;-64
2023/08/14 08:58:16;;;;;;;6.70;6.20;;;25.40;99.90;;;;;;5078314;28;20453;-64
2023/08/14 09:00:44;;;;;;;6.10;5.70;;;25.50;99.90;;;;;;5071377;28;21036;-64
2023/08/14 09:03:12;;;;;;;5.60;5.20;;;25.70;99.90;;;;;;5079714;28;20442;-62
2023/08/14 09:05:40;;;;;;;6.67;6.13;;;25.80;99.90;;;;;;5064996;28;20462;-63
2023/08/14 09:08:08;;;;;;;6.23;5.77;;;25.90;99.90;;;;;;5085673;28;20525;-64
2023/08/14 09:10:36;;;;;;;6.50;6.10;;;26.10;99.90;;;;;;5069247;28;20440;-63
2023/08/14 09:13:03;;;;;;;6.07;5.57;;;26.30;99.90;;;;;;5066322;28;20471;-63
2023/08/14 09:15:31;;;;;;;5.07;4.67;;;26.50;99.90;;;;;;5066436;28;20463;-63
2023/08/14 09:17:58;;;;;;;5.67;5.27;;;26.50;99.90;;;;;;5074425;28;20447;-63
2023/08/14 09:20:25;;;;;;;5.70;5.20;;;26.50;99.90;;;;;;5078594;28;21186;-63
2023/08/14 09:22:57;;;;;;;6.10;5.60;;;26.50;99.90;;;;;;5066321;28;20561;-63
2023/08/14 09:25:24;;;;;;;6.13;5.63;;;26.60;99.90;;;;;;5070131;28;20461;-62
2023/08/14 09:27:53;;;;;;;5.00;4.70;;;26.60;99.90;;;;;;5069627;28;20538;-63
2023/08/14 09:30:20;;;;;;;5.37;5.00;;;26.60;99.90;;;;;;5070320;28;20458;-63
2023/08/14 09:32:47;;;;;;;5.53;5.03;;;26.70;99.90;;;;;;5069956;28;20482;-63
2023/08/14 09:35:14;;;;;;;6.30;5.70;;;26.80;99.90;;;;;;5070216;28;20452;-62
2023/08/14 09:37:41;;;;;;;5.70;5.30;;;26.90;99.90;;;;;;5069709;28;20560;-63
2023/08/14 09:40:15;;;;;;;5.87;5.27;;;27.00;99.90;;;;;;5081504;28;20483;-63
2023/08/14 09:42:43;;;;;;;5.63;5.30;;;27.00;99.90;;;;;;5085906;28;20482;-63
2023/08/14 09:45:12;;;;;;;4.97;4.67;;;27.10;99.90;;;;;;5089732;28;20915;-63
2023/08/14 09:47:41;;;;;;;5.00;4.63;;;27.20;99.90;;;;;;5079966;28;20463;-64
2023/08/14 09:50:09;;;;;;;5.50;5.10;;;27.20;99.90;;;;;;5070282;28;20536;-63
2023/08/14 09:52:36;;;;;;;5.30;4.90;;;27.30;99.90;;;;;;5085944;28;20468;-64
2023/08/14 09:55:03;;;;;;;8.40;6.60;;;27.30;99.90;;;;;;5089539;28;20453;-64
2023/08/14 09:57:30;;;;;;;5.33;4.93;;;27.30;99.90;;;;;;5088487;28;20535;-63
2023/08/14 09:59:57;;;;;;;11.00;6.20;;;27.40;99.90;;;;;;5089003;28;20602;-64
2023/08/14 10:02:26;;;;;;;5.80;5.30;;;27.40;99.90;;;;;;5089625;28;20476;-63
2023/08/14 10:04:54;;;;;;;5.40;5.00;;;27.50;99.90;;;;;;5088884;28;20445;-62
2023/08/14 10:07:23;;;;;;;4.87;4.47;;;27.60;99.90;;;;;;5088812;28;20904;-61
2023/08/14 10:09:52;;;;;;;5.03;4.73;;;27.70;99.90;;;;;;5087450;28;20450;-61
2023/08/14 10:12:22;;;;;;;4.17;3.87;;;27.70;99.90;;;;;;5089418;28;20467;-62
2023/08/14 10:14:53;;;;;;;4.53;4.17;;;27.70;99.90;;;;;;5088376;28;20450;-62
2023/08/14 10:17:25;;;;;;;4.53;4.23;;;27.70;99.90;;;;;;5088636;28;20454;-62
2023/08/14 10:19:56;;;;;;;6.63;5.37;;;27.80;99.90;;;;;;5082560;28;20491;-63
2023/08/14 10:22:24;;;;;;;5.30;4.93;;;27.80;99.90;;;;;;5087884;28;20464;-62
2023/08/14 10:24:54;;;;;;;4.90;4.60;;;27.80;99.90;;;;;;5086670;28;20444;-61
2023/08/14 10:27:21;;;;;;;5.03;4.70;;;27.90;99.90;;;;;;5087144;28;20536;-63
2023/08/14 10:29:49;;;;;;;7.83;5.20;;;28.00;99.90;;;;;;5090447;28;20442;-62
2023/08/14 10:32:16;;;;;;;5.20;4.80;;;28.10;99.90;;;;;;5100448;28;20478;-63
2023/08/14 10:34:44;;;;;;;5.20;4.80;;;28.20;99.90;;;;;;5087801;28;20537;-62
2023/08/14 10:37:25;;;;;;;6.40;5.80;;;28.20;99.90;;;;;;5087831;28;20437;-62
2023/08/14 10:39:52;;;;;;;4.10;3.90;;;28.30;99.90;;;;;;5073683;28;20485;-63
2023/08/14 10:42:19;;;;;;;3.40;3.20;;;28.40;99.90;;;;;;5088763;28;20469;-62
2023/08/14 10:44:46;;;;;;;5.10;4.70;;;28.40;99.90;;;;;;5089514;28;20442;-63
2023/08/14 10:47:13;;;;;;;5.13;3.83;;;28.50;99.90;;;;;;5089190;28;20449;-61
2023/08/14 10:49:44;;;;;;;4.20;3.90;;;28.40;99.90;;;;;;5089520;28;20445;-61
2023/08/14 10:52:15;;;;;;;4.17;3.87;;;28.30;99.90;;;;;;5089394;28;20476;-62
2023/08/14 10:54:49;;;;;;;5.00;4.60;;;28.30;99.90;;;;;;5082010;28;20898;-62
2023/08/14 10:57:16;;;;;;;6.07;4.40;;;28.40;99.90;;;;;;5088631;28;20938;-62
2023/08/14 10:59:43;;;;;;;4.10;3.80;;;28.50;99.90;;;;;;5071672;28;21096;-62
2023/08/14 11:02:14;;;;;;;4.20;3.80;;;28.60;99.90;;;;;;5088920;28;20494;-62
2023/08/14 11:04:56;;;;;;;4.13;3.67;;;28.60;99.90;;;;;;5088573;28;20896;-61
2023/08/14 11:07:27;;;;;;;3.87;3.57;;;28.80;99.90;;;;;;5087699;28;20449;-60
2023/08/14 11:09:57;;;;;;;4.33;3.57;;;28.80;99.90;;;;;;5087027;28;20447;-63
2023/08/14 11:12:23;;;;;;;3.27;3.07;;;29.00;99.90;;;;;;5088875;28;20470;-61
2023/08/14 11:14:50;;;;;;;4.27;3.87;;;29.10;99.90;;;;;;5088366;28;20446;-62
2023/08/14 11:17:17;;;;;;;4.90;4.33;;;29.20;99.90;;;;;;5087685;28;20529;-61
2023/08/14 11:19:44;;;;;;;4.20;3.90;;;29.40;99.90;;;;;;5088781;28;20585;-62
2023/08/14 11:22:11;;;;;;;3.33;3.00;;;29.50;99.90;;;;;;5088496;28;20470;-62
2023/08/14 11:24:38;;;;;;;3.97;3.70;;;29.60;99.90;;;;;;5088209;28;20450;-63
2023/08/14 11:27:06;;;;;;;4.00;3.70;;;29.60;99.90;;;;;;5086890;28;20562;-62
2023/08/14 11:29:33;;;;;;;3.20;3.00;;;29.70;99.90;;;;;;5088176;28;21054;-63
2023/08/14 11:32:00;;;;;;;3.73;3.53;;;29.70;99.90;;;;;;5081346;28;20569;-63
2023/08/14 11:34:27;;;;;;;3.73;3.43;;;29.90;99.90;;;;;;5087848;28;20457;-62
2023/08/14 11:36:56;;;;;;;3.80;3.60;;;30.00;99.90;;;;;;5083992;28;20456;-63
2023/08/14 11:39:23;;;;;;;3.70;3.40;;;30.10;99.90;;;;;;5087778;28;20858;-63
2023/08/14 11:41:49;;;;;;;4.03;3.73;;;30.30;99.90;;;;;;5087446;28;20492;-62
2023/08/14 11:44:18;;;;;;;3.80;3.50;;;30.30;99.90;;;;;;5087773;28;20459;-63
2023/08/14 11:46:45;;;;;;;4.10;3.80;;;30.40;99.90;;;;;;5086253;28;20463;-63
2023/08/14 11:49:12;;;;;;;3.97;3.77;;;30.60;99.90;;;;;;5087185;28;20543;-62
2023/08/14 11:51:40;;;;;;;4.30;4.00;;;30.60;99.90;;;;;;5086962;28;20464;-63
2023/08/14 11:54:08;;;;;;;4.00;3.80;;;30.70;99.90;;;;;;5087350;28;20454;-63
2023/08/14 11:56:35;;;;;;;4.33;4.03;;;30.60;99.90;;;;;;5082000;28;20508;-60
2023/08/14 11:59:02;;;;;;;3.77;3.57;;;30.60;99.40;;;;;;5073430;28;20451;-63
2023/08/14 12:01:31;;;;;;;4.70;4.20;;;30.50;99.40;;;;;;5087728;28;20496;-62
2023/08/14 12:03:59;;;;;;;4.30;4.00;;;30.40;99.90;;;;;;5083770;28;20460;-63
2023/08/14 12:06:26;;;;;;;4.53;4.23;;;30.30;99.90;;;;;;5086715;28;20532;-63
2023/08/14 12:08:53;;;;;;;3.53;3.33;;;30.20;99.90;;;;;;5080254;28;20462;-63
2023/08/14 12:11:20;;;;;;;4.03;3.60;;;30.20;99.90;;;;;;5087548;28;20726;-63
2023/08/14 12:13:51;;;;;;;4.73;4.43;;;30.20;99.90;;;;;;5080101;28;20540;-63
2023/08/14 12:16:20;;;;;;;3.47;3.20;;;30.20;99.90;;;;;;5085839;28;20451;-63
2023/08/14 12:18:49;;;;;;;3.90;3.60;;;30.20;99.90;;;;;;5078967;28;20847;-62
2023/08/14 12:21:16;;;;;;;4.13;3.93;;;30.20;99.90;;;;;;5086265;28;20483;-62
2023/08/14 12:23:47;;;;;;;3.87;3.57;;;30.40;99.90;;;;;;5083030;28;20460;-62
2023/08/14 12:26:14;;;;;;;3.73;3.50;;;30.50;99.10;;;;;;5086267;28;20460;-63
2023/08/14 12:28:42;;;;;;;3.57;3.37;;;30.60;99.90;;;;;;5086292;28;21011;-63
2023/08/14 12:31:10;;;;;;;5.07;3.97;;;30.70;99.90;;;;;;5086700;28;20476;-63
2023/08/14 12:33:36;;;;;;;3.97;3.40;;;30.90;99.90;;;;;;5085349;28;20460;-63
2023/08/14 12:36:05;;;;;;;3.20;3.00;;;31.00;99.90;;;;;;5086380;28;20536;-62
2023/08/14 12:38:32;;;;;;;3.77;3.43;;;31.30;99.90;;;;;;5086473;28;20537;-63
2023/08/14 12:40:59;;;;;;;3.50;3.20;;;31.40;99.90;;;;;;5087493;28;20926;-62
2023/08/14 12:43:26;;;;;;;3.33;3.13;;;31.60;99.90;;;;;;5080191;28;20518;-63
2023/08/14 12:45:53;;;;;;;4.87;3.30;;;31.60;96.50;;;;;;5086838;28;20519;-64
2023/08/14 12:48:19;;;;;;;3.80;3.50;;;31.80;98.10;;;;;;5086541;28;20456;-63
2023/08/14 12:50:46;;;;;;;4.50;3.37;;;31.90;97.20;;;;;;5087165;28;20442;-63